Accueil
METAR-TAF:

METAR-TAF

Aéroports :

Aéroport international Gengis Khan

Oulan-Bator, Mongolie

latitude: 47-55N, longitude: 106-52E, altitude: 1306 m

Observation

Le bulletin a été fait il y a 40 minutes, à 03:30 UTC
Vent calme
Température -24°C
Humidité 76%
Pression 1027 hPa
Visibilité: 3000 m
fumée

METAR: ZMUB 110330Z 00000MPS 3000NW FU NSC M24/M27 Q1027 NOSIG RMK QFE661.8 72 NW MO

Heure: 12:10 (04:10 UTC)

Prévision

Le bulletin a été fait il y a 5 heures et 25 minutes, à 22:45 UTC
Prévision valable du 11 à 00 UTC au 12 à 06 UTC
Vent 4 kt de direction variable
Visibilité: 6000 m
Nuages épars à une hauteur de 10000 ft

TAF: ZMUB 102245Z 1100/1206 VRB02MPS 6000 SCT100 TXM15/1107Z TNM28/1123Z

Observations et prévisions météorologiques de plus de 4000 aéroports (messages METAR et TAF).

Les stations disponibles sont représentées par des disques jaunes et rouges sur la carte.

Passer la souris dessus pour voir le nom de la station.

Cliquer dessus pour voir les observations et prévisions météorologiques.

Pour changer de carte: cliquez sur les boutons verts avec une croix noire pour zoomer, sur le bouton vert avec un tiret pour effectuer un zoom arrière, ou sur les flèches vertes pour les cartes adjacentes.


METAR-TAF: